createdAt,value
2023-01-17T00:00:56.700Z,2.20
2023-01-17T00:06:23.312Z,2.10
2023-01-17T00:11:26.644Z,1.90
2023-01-17T00:16:29.975Z,1.80
2023-01-17T00:22:08.446Z,1.80
2023-01-17T00:27:13.521Z,1.90
2023-01-17T00:32:16.286Z,2.00
2023-01-17T00:37:21.817Z,2.10
2023-01-17T00:42:23.938Z,2.00
2023-01-17T00:47:44.687Z,1.80
2023-01-17T00:53:08.512Z,1.80
2023-01-17T00:58:29.175Z,1.90
2023-01-17T01:03:50.728Z,2.00
2023-01-17T01:09:13.437Z,2.00
2023-01-17T01:14:34.060Z,2.10
2023-01-17T01:19:54.678Z,2.10
2023-01-17T01:25:16.973Z,2.10
2023-01-17T01:30:46.116Z,2.00
2023-01-17T01:35:50.957Z,1.80
2023-01-17T01:40:57.138Z,1.50
2023-01-17T01:46:00.619Z,1.20
2023-01-17T01:51:09.789Z,1.00
2023-01-17T01:56:15.840Z,1.00
2023-01-17T02:01:21.727Z,0.90
2023-01-17T02:06:31.933Z,0.90
2023-01-17T02:11:38.355Z,1.00
2023-01-17T02:16:58.504Z,1.00
2023-01-17T02:22:26.093Z,1.10
2023-01-17T02:27:50.293Z,1.30
2023-01-17T02:33:04.734Z,1.30
2023-01-17T02:38:20.745Z,1.30
2023-01-17T02:43:25.930Z,1.30
2023-01-17T02:48:38.422Z,1.40
2023-01-17T02:53:54.276Z,1.30
2023-01-17T02:59:11.666Z,1.30
2023-01-17T03:04:22.779Z,1.20
2023-01-17T03:09:27.982Z,1.30
2023-01-17T03:14:32.348Z,1.50
2023-01-17T03:19:38.093Z,1.50
2023-01-17T03:24:49.425Z,1.50
2023-01-17T03:29:52.807Z,1.50
2023-01-17T03:34:57.727Z,1.40
2023-01-17T03:40:04.598Z,1.40
2023-01-17T03:45:09.935Z,1.40
2023-01-17T03:50:15.820Z,1.30
2023-01-17T03:55:25.933Z,1.20
2023-01-17T04:00:30.290Z,1.30
2023-01-17T04:05:40.994Z,1.20
2023-01-17T04:10:44.339Z,1.30
2023-01-17T04:15:53.485Z,1.30
2023-01-17T04:20:59.211Z,1.10
2023-01-17T04:26:03.813Z,1.00
2023-01-17T04:31:07.722Z,0.80
2023-01-17T04:36:12.411Z,0.90
2023-01-17T04:41:15.871Z,1.00
2023-01-17T04:46:20.877Z,1.10
2023-01-17T04:51:25.652Z,1.20
2023-01-17T04:56:29.972Z,1.10
2023-01-17T05:01:35.431Z,1.00
2023-01-17T05:06:40.262Z,0.90
2023-01-17T05:11:43.526Z,0.80
2023-01-17T05:16:46.724Z,0.80
2023-01-17T05:21:51.370Z,0.90
2023-01-17T05:27:03.068Z,0.90
2023-01-17T05:32:07.330Z,0.90
2023-01-17T05:37:12.020Z,0.90
2023-01-17T05:42:15.272Z,0.90
2023-01-17T05:47:18.487Z,1.00
2023-01-17T05:52:24.277Z,1.00
2023-01-17T05:57:27.634Z,1.00
2023-01-17T06:02:31.979Z,0.90
2023-01-17T06:07:39.501Z,0.90
2023-01-17T06:12:43.322Z,0.80
2023-01-17T06:17:47.600Z,0.70
2023-01-17T06:22:52.438Z,0.80
2023-01-17T06:27:56.788Z,0.70
2023-01-17T06:33:00.197Z,0.50
2023-01-17T06:38:05.042Z,0.30
2023-01-17T06:43:08.344Z,0.20
2023-01-17T06:48:11.650Z,0.20
2023-01-17T06:53:17.524Z,0.10
2023-01-17T06:58:20.669Z,0.00
2023-01-17T07:03:27.282Z,0.00
2023-01-17T07:08:34.859Z,0.00
2023-01-17T07:13:40.986Z,0.10
2023-01-17T07:18:47.174Z,0.20
2023-01-17T07:23:51.785Z,0.10
2023-01-17T07:28:55.127Z,-0.10
2023-01-17T07:33:58.324Z,-0.20
2023-01-17T07:39:05.435Z,-0.20
2023-01-17T07:44:09.927Z,-0.10
2023-01-17T07:49:16.497Z,-0.10
2023-01-17T07:54:21.105Z,0.00
2023-01-17T07:59:24.308Z,0.20
2023-01-17T08:04:28.828Z,0.30
2023-01-17T08:09:33.543Z,0.60
2023-01-17T08:14:40.289Z,1.00
2023-01-17T08:19:43.748Z,1.30
2023-01-17T08:24:48.711Z,1.40
2023-01-17T08:29:52.220Z,1.40
2023-01-17T08:34:56.663Z,1.40
2023-01-17T08:40:01.296Z,1.50
2023-01-17T08:45:05.971Z,1.70
2023-01-17T08:50:09.984Z,2.00
2023-01-17T08:55:14.758Z,2.20
2023-01-17T09:00:19.033Z,2.30
2023-01-17T09:05:22.377Z,2.20
2023-01-17T09:10:27.238Z,2.10
2023-01-17T09:15:30.618Z,1.90
2023-01-17T09:20:33.965Z,1.70
2023-01-17T09:25:39.942Z,1.60
2023-01-17T09:30:46.620Z,1.50
2023-01-17T09:35:49.913Z,1.70
2023-01-17T09:40:54.712Z,1.90
2023-01-17T09:45:58.247Z,2.00
2023-01-17T09:51:07.457Z,2.20
2023-01-17T09:56:16.913Z,2.20
2023-01-17T10:01:27.521Z,2.10
2023-01-17T10:06:44.076Z,2.10
2023-01-17T10:12:05.906Z,2.20
2023-01-17T10:17:16.636Z,2.30
2023-01-17T10:22:41.551Z,2.40
2023-01-17T10:27:52.849Z,2.40
2023-01-17T10:32:58.204Z,2.50
2023-01-17T10:38:05.107Z,2.60
2023-01-17T10:43:19.439Z,2.70
2023-01-17T10:48:38.916Z,2.70
2023-01-17T10:53:55.997Z,2.60
2023-01-17T10:59:13.334Z,2.70
2023-01-17T11:04:21.328Z,2.70
2023-01-17T11:09:39.557Z,2.80
2023-01-17T11:15:07.239Z,3.00
2023-01-17T11:20:20.084Z,3.20
2023-01-17T11:25:25.077Z,3.30
2023-01-17T11:30:30.512Z,3.20
2023-01-17T11:35:35.547Z,3.30
2023-01-17T11:40:41.538Z,3.40
2023-01-17T11:45:47.524Z,3.40
2023-01-17T11:50:57.896Z,3.60
2023-01-17T11:56:06.352Z,3.70
2023-01-17T12:01:34.187Z,3.60
2023-01-17T12:06:57.179Z,3.50
2023-01-17T12:12:26.659Z,3.50
2023-01-17T12:17:45.476Z,3.80
2023-01-17T12:23:14.191Z,4.00
2023-01-17T12:28:44.702Z,4.10
2023-01-17T12:33:54.806Z,4.10
2023-01-17T12:39:02.260Z,4.00
2023-01-17T12:44:05.945Z,4.10
2023-01-17T12:49:23.883Z,4.20
2023-01-17T12:54:32.801Z,4.40
2023-01-17T12:59:41.690Z,4.40
2023-01-17T13:04:58.414Z,4.30
2023-01-17T13:10:12.783Z,4.20
2023-01-17T13:15:18.416Z,4.10
2023-01-17T13:20:31.927Z,4.10
2023-01-17T13:25:44.988Z,4.20
2023-01-17T13:31:07.641Z,4.10
2023-01-17T13:36:32.622Z,4.10
2023-01-17T13:41:46.841Z,4.20
2023-01-17T13:47:01.937Z,4.20
2023-01-17T13:52:12.422Z,4.30
2023-01-17T13:57:43.807Z,4.10
2023-01-17T14:02:49.017Z,3.90
2023-01-17T14:07:59.038Z,3.80
2023-01-17T14:13:03.361Z,3.70
2023-01-17T14:18:27.748Z,3.60
2023-01-17T14:23:55.445Z,3.50
2023-01-17T14:29:00.725Z,3.50
2023-01-17T14:34:13.897Z,3.40
2023-01-17T14:39:24.398Z,3.30
2023-01-17T14:44:28.225Z,3.20
2023-01-17T14:49:31.747Z,3.20
2023-01-17T14:54:36.921Z,3.10
2023-01-17T14:59:40.291Z,3.10
2023-01-17T15:04:44.082Z,2.90
2023-01-17T15:09:49.169Z,2.80
2023-01-17T15:14:58.483Z,2.70
2023-01-17T15:20:06.434Z,2.60
2023-01-17T15:25:15.424Z,2.50
2023-01-17T15:30:26.061Z,2.50
2023-01-17T15:35:29.805Z,2.40
2023-01-17T15:40:37.802Z,2.40
2023-01-17T15:45:41.278Z,2.30
2023-01-17T15:50:45.708Z,2.40
2023-01-17T15:55:52.473Z,2.30
2023-01-17T16:00:56.287Z,2.30
2023-01-17T16:06:03.185Z,2.20
2023-01-17T16:11:11.869Z,2.20
2023-01-17T16:16:25.884Z,2.30
2023-01-17T16:21:30.590Z,2.20
2023-01-17T16:26:35.379Z,2.10
2023-01-17T16:31:38.802Z,2.00
2023-01-17T16:36:42.252Z,1.80
2023-01-17T16:41:46.972Z,1.70
2023-01-17T16:46:51.261Z,1.40
2023-01-17T16:51:55.057Z,1.20
2023-01-17T16:57:04.245Z,1.00
2023-01-17T17:02:12.006Z,0.80
2023-01-17T17:07:15.588Z,0.60
2023-01-17T17:12:20.620Z,0.50
2023-01-17T17:17:24.067Z,0.40
2023-01-17T17:22:27.649Z,0.40
2023-01-17T17:27:33.815Z,0.40
2023-01-17T17:32:37.733Z,0.30
2023-01-17T17:37:41.091Z,0.30
2023-01-17T17:42:45.851Z,0.30
2023-01-17T17:47:49.124Z,0.20
2023-01-17T17:52:54.559Z,0.20
2023-01-17T17:57:59.507Z,0.20
2023-01-17T18:03:02.982Z,0.20
2023-01-17T18:08:06.796Z,0.20
2023-01-17T18:13:24.390Z,0.20
2023-01-17T18:18:28.087Z,0.10
2023-01-17T18:23:32.597Z,0.10
2023-01-17T18:28:37.446Z,0.10
2023-01-17T18:33:42.827Z,0.10
2023-01-17T18:38:48.069Z,0.10
2023-01-17T18:43:53.013Z,0.00
2023-01-17T18:48:58.795Z,0.00
2023-01-17T18:54:06.689Z,0.00
2023-01-17T18:59:15.249Z,0.00
2023-01-17T19:04:19.014Z,0.00
2023-01-17T19:09:24.378Z,0.00
2023-01-17T19:14:29.008Z,0.00
2023-01-17T19:19:34.295Z,0.00
2023-01-17T19:24:38.419Z,0.00
2023-01-17T19:29:44.127Z,0.00
2023-01-17T19:34:50.509Z,0.00
2023-01-17T19:39:54.089Z,0.00
2023-01-17T19:44:59.131Z,0.00
2023-01-17T19:50:02.581Z,0.00
2023-01-17T19:55:11.083Z,0.00
2023-01-17T20:00:20.588Z,-0.10
2023-01-17T20:05:25.310Z,-0.10
2023-01-17T20:10:29.755Z,-0.10
2023-01-17T20:15:37.183Z,0.00
2023-01-17T20:20:56.247Z,0.00
2023-01-17T20:26:01.480Z,-0.10
2023-01-17T20:31:12.761Z,-0.10
2023-01-17T20:36:18.846Z,-0.20
2023-01-17T20:41:23.871Z,-0.30
2023-01-17T20:46:31.412Z,-0.30
2023-01-17T20:51:38.416Z,-0.30
2023-01-17T20:56:42.801Z,-0.30
2023-01-17T21:01:47.903Z,-0.30
2023-01-17T21:06:53.222Z,-0.30
2023-01-17T21:12:01.189Z,-0.30
2023-01-17T21:17:06.202Z,-0.30
2023-01-17T21:22:18.598Z,-0.20
2023-01-17T21:27:32.729Z,-0.20
2023-01-17T21:32:37.511Z,-0.20
2023-01-17T21:37:43.551Z,-0.20
2023-01-17T21:42:52.850Z,-0.20
2023-01-17T21:47:58.786Z,-0.20
2023-01-17T21:53:06.344Z,-0.20
2023-01-17T21:58:40.640Z,-0.20
2023-01-17T22:03:49.969Z,-0.20
2023-01-17T22:08:54.530Z,-0.20
2023-01-17T22:14:07.494Z,-0.20
2023-01-17T22:19:12.133Z,-0.20
2023-01-17T22:24:23.304Z,-0.10
2023-01-17T22:29:27.025Z,-0.20
2023-01-17T22:34:39.633Z,-0.20
2023-01-17T22:39:50.393Z,-0.10
2023-01-17T22:44:58.761Z,-0.10
2023-01-17T22:50:06.218Z,-0.10
2023-01-17T22:55:12.383Z,-0.20
2023-01-17T23:00:16.640Z,-0.20
2023-01-17T23:05:23.295Z,-0.20
2023-01-17T23:10:44.096Z,-0.20
2023-01-17T23:16:05.073Z,-0.10
2023-01-17T23:21:11.919Z,-0.20
2023-01-17T23:26:17.032Z,-0.20
2023-01-17T23:31:20.467Z,-0.20
2023-01-17T23:36:28.093Z,-0.20
2023-01-17T23:41:46.335Z,-0.20
2023-01-17T23:46:52.789Z,-0.20
2023-01-17T23:51:57.576Z,-0.10
2023-01-17T23:57:02.078Z,-0.10
